createdAt,value
2022-09-01T00:12:36.818Z,96346.75
2022-09-01T00:27:39.094Z,96343.56
2022-09-01T00:42:43.462Z,96324.34
2022-09-01T00:57:45.711Z,96319.00
2022-09-01T01:12:51.758Z,96322.56
2022-09-01T01:28:13.682Z,96342.00
2022-09-01T01:43:20.075Z,96340.41
2022-09-01T01:58:22.706Z,96345.22
2022-09-01T02:13:30.286Z,96352.44
2022-09-01T02:28:34.909Z,96335.44
2022-09-01T02:43:39.928Z,96313.34
2022-09-01T02:58:46.134Z,96319.03
2022-09-01T03:13:48.858Z,96320.66
2022-09-01T03:28:51.457Z,96321.00
2022-09-01T03:43:54.984Z,96324.06
2022-09-01T03:58:58.891Z,96328.25
2022-09-01T04:14:01.561Z,96316.91
2022-09-01T04:29:06.798Z,96326.16
2022-09-01T04:44:09.588Z,96324.16
2022-09-01T04:59:14.905Z,96322.44
2022-09-01T05:14:21.444Z,96319.34
2022-09-01T05:29:24.298Z,96323.47
2022-09-01T05:44:28.959Z,96318.63
2022-09-01T05:59:31.469Z,96315.56
2022-09-01T06:14:38.997Z,96317.38
2022-09-01T06:29:41.617Z,96317.34
2022-09-01T06:44:47.663Z,96314.91
2022-09-01T06:59:50.277Z,96319.44
2022-09-01T07:30:20.939Z,96328.09
2022-09-01T07:45:28.197Z,96312.69
2022-09-01T08:00:37.133Z,96321.41
2022-09-01T08:16:06.932Z,96325.63
2022-09-01T08:31:11.303Z,96349.66
2022-09-01T08:46:30.479Z,96351.38
2022-09-01T09:02:00.599Z,96355.13
2022-09-01T09:17:04.298Z,96361.53
2022-09-01T09:32:22.458Z,96359.19
2022-09-01T09:47:54.885Z,96353.38
2022-09-01T10:03:09.998Z,96349.91
2022-09-01T10:18:28.954Z,96343.41
2022-09-01T10:33:31.678Z,96342.53
2022-09-01T10:48:46.290Z,96333.19
2022-09-01T11:03:56.393Z,96331.63
2022-09-01T11:19:34.909Z,96330.00
2022-09-01T11:34:41.904Z,96330.75
2022-09-01T11:50:00.127Z,96325.59
2022-09-01T12:05:04.295Z,96311.81
2022-09-01T12:20:29.931Z,96291.28
2022-09-01T12:35:32.280Z,96298.50
2022-09-01T12:50:35.965Z,96288.25
2022-09-01T13:05:42.644Z,96274.75
2022-09-01T13:20:45.030Z,96274.50
2022-09-01T13:35:47.752Z,96266.44
2022-09-01T14:06:12.725Z,96248.03
2022-09-01T14:21:15.444Z,96254.75
2022-09-01T14:36:25.346Z,96249.81
2022-09-01T15:06:52.313Z,96238.75
2022-09-01T15:21:54.504Z,96221.84
2022-09-01T15:36:59.727Z,96209.03
2022-09-01T15:52:02.000Z,96218.06
2022-09-01T16:07:04.227Z,96211.94
2022-09-01T16:22:28.605Z,96216.34
2022-09-01T16:37:48.989Z,96216.88
2022-09-01T16:53:08.392Z,96204.53
2022-09-01T17:08:26.798Z,96193.63
2022-09-01T17:23:31.942Z,96185.53
2022-09-01T17:38:46.135Z,96187.25
2022-09-01T17:53:58.037Z,96196.28
2022-09-01T18:09:00.326Z,96194.84
2022-09-01T18:24:35.881Z,96214.44
2022-09-01T18:40:03.140Z,96233.97
2022-09-01T18:55:21.179Z,96239.09
2022-09-01T19:10:31.440Z,96227.09
2022-09-01T19:25:33.672Z,96242.88
2022-09-01T19:40:37.398Z,96233.50
2022-09-01T19:55:45.204Z,96232.91
2022-09-01T20:11:01.204Z,96227.09
2022-09-01T20:26:10.818Z,96231.88
2022-09-01T20:41:19.477Z,96224.91
2022-09-01T20:56:45.585Z,96218.69
2022-09-01T21:11:49.339Z,96223.03
2022-09-01T21:26:52.080Z,96211.50
2022-09-01T21:41:54.298Z,96213.13
2022-09-01T21:56:56.491Z,96205.50
2022-09-01T22:11:58.703Z,96210.53
2022-09-01T22:27:00.938Z,96198.19
2022-09-01T22:42:03.808Z,96194.84
2022-09-01T22:57:06.013Z,96191.34
2022-09-01T23:12:08.255Z,96188.50
2022-09-01T23:27:10.471Z,96185.94
2022-09-01T23:42:12.723Z,96190.47
2022-09-01T23:57:15.348Z,96185.28
